Time;durP1;ratioP1;P1;durP2;ratioP2;P2;SDS_P1;SDS_P2;PMS_P1;PMS_P2;Temp;Humidity;BMP_temperature;BMP_pressure;BME280_temperature;BME280_humidity;BME280_pressure;Samples;Min_cycle;Max_cycle;Signal;HPM_P1;HPM_P2
2023/05/11 00:01:05;;;;;;;2.10;1.20;;;16.40;42.70;;;;;;4993488;28;20450;-71
2023/05/11 00:03:31;;;;;;;2.40;1.50;;;16.60;41.10;;;;;;4992729;28;20259;-71
2023/05/11 00:05:57;;;;;;;2.00;1.10;;;16.40;42.40;;;;;;4993624;28;20810;-73
2023/05/11 00:08:23;;;;;;;2.10;1.20;;;16.50;38.40;;;;;;4994475;28;20424;-72
2023/05/11 00:10:49;;;;;;;2.13;1.27;;;16.50;40.50;;;;;;4993415;28;20462;-72
2023/05/11 00:13:15;;;;;;;5.33;1.80;;;16.60;38.60;;;;;;4992680;28;20213;-72
2023/05/11 00:15:40;;;;;;;2.00;1.20;;;16.60;38.40;;;;;;4992588;28;20432;-73
2023/05/11 00:18:06;;;;;;;2.73;1.40;;;16.60;38.50;;;;;;4994047;28;20424;-71
2023/05/11 00:20:32;;;;;;;2.17;1.27;;;16.70;39.60;;;;;;4993404;28;20204;-72
2023/05/11 00:22:57;;;;;;;2.00;1.20;;;16.70;38.60;;;;;;4991785;28;20186;-71
2023/05/11 00:25:23;;;;;;;2.00;1.20;;;16.70;39.30;;;;;;4975889;28;20221;-72
2023/05/11 00:27:49;;;;;;;2.00;1.27;;;16.70;39.60;;;;;;4993393;28;20186;-71
2023/05/11 00:30:15;;;;;;;2.10;1.30;;;16.70;39.30;;;;;;4993689;28;20426;-72
2023/05/11 00:32:41;;;;;;;2.10;1.33;;;16.40;38.20;;;;;;4986993;28;20244;-71
2023/05/11 00:35:08;;;;;;;2.17;1.30;;;16.00;39.30;;;;;;4979315;28;20444;-71
2023/05/11 00:37:34;;;;;;;2.10;1.20;;;15.70;40.00;;;;;;4993903;28;20428;-73
2023/05/11 00:39:59;;;;;;;2.73;1.30;;;15.80;41.50;;;;;;4993694;28;20419;-72
2023/05/11 00:42:25;;;;;;;2.03;1.17;;;16.20;42.00;;;;;;4993097;28;20202;-73
2023/05/11 00:44:51;;;;;;;1.90;1.17;;;16.50;39.60;;;;;;4989748;28;20192;-71
2023/05/11 00:47:16;;;;;;;1.83;1.13;;;16.60;39.20;;;;;;4992827;28;20189;-73
2023/05/11 00:49:42;;;;;;;1.90;1.10;;;16.60;38.50;;;;;;4993543;28;20261;-72
2023/05/11 00:52:08;;;;;;;1.90;1.10;;;16.80;38.70;;;;;;4992707;28;20205;-71
2023/05/11 00:54:35;;;;;;;1.90;1.20;;;16.80;38.70;;;;;;4991980;28;20936;-71
2023/05/11 00:57:01;;;;;;;1.97;1.20;;;16.70;40.90;;;;;;4993190;28;20192;-72
2023/05/11 00:59:27;;;;;;;2.07;1.30;;;16.80;41.20;;;;;;4992432;28;20433;-72
2023/05/11 01:01:53;;;;;;;2.00;1.30;;;16.90;40.40;;;;;;4992768;28;20440;-73
2023/05/11 01:04:19;;;;;;;1.97;1.20;;;17.00;40.20;;;;;;4991964;28;20432;-72
2023/05/11 01:07:11;;;;;;;1.90;1.17;;;16.90;39.50;;;;;;4991873;28;20456;-72
2023/05/11 01:09:49;;;;;;;1.90;1.20;;;16.90;37.60;;;;;;4956840;28;21158;-71
2023/05/11 01:12:24;;;;;;;2.00;1.30;;;16.90;40.10;;;;;;4993255;28;20464;-71
2023/05/11 01:14:59;;;;;;;1.87;1.13;;;16.80;41.70;;;;;;4991078;28;20531;-71
2023/05/11 01:17:36;;;;;;;1.90;1.20;;;16.90;38.80;;;;;;4988843;28;20889;-71
2023/05/11 01:20:07;;;;;;;1.83;1.10;;;16.70;39.10;;;;;;4987962;28;20409;-71
2023/05/11 01:22:32;;;;;;;2.70;1.40;;;16.70;40.60;;;;;;4992418;28;20979;-71
2023/05/11 01:25:31;;;;;;;1.90;1.20;;;16.60;41.30;;;;;;4992368;28;20523;-72
2023/05/11 01:28:22;;;;;;;1.97;1.20;;;16.60;39.60;;;;;;4983807;28;20324;-71
2023/05/11 01:30:49;;;;;;;2.10;1.20;;;16.60;39.90;;;;;;4970412;28;21014;-71
2023/05/11 01:33:16;;;;;;;1.83;1.10;;;16.70;40.60;;;;;;4991432;28;20534;-71
2023/05/11 01:35:51;;;;;;;1.90;1.13;;;16.80;40.20;;;;;;4991966;28;20954;-72
2023/05/11 01:38:20;;;;;;;1.90;1.20;;;16.80;38.00;;;;;;4991401;28;20923;-73
2023/05/11 01:40:53;;;;;;;2.00;1.20;;;16.90;38.10;;;;;;4992355;28;20897;-73
2023/05/11 01:43:22;;;;;;;1.90;1.10;;;16.90;39.50;;;;;;4992166;28;20888;-71
2023/05/11 01:45:51;;;;;;;1.90;1.10;;;17.00;37.70;;;;;;4975472;28;20409;-72
2023/05/11 01:48:20;;;;;;;2.13;1.30;;;16.90;37.60;;;;;;4991394;28;20443;-72
2023/05/11 01:50:48;;;;;;;2.20;1.40;;;16.80;39.30;;;;;;4991843;28;20468;-72
2023/05/11 01:53:16;;;;;;;2.07;1.20;;;16.70;40.40;;;;;;4991909;28;21243;-71
2023/05/11 01:55:46;;;;;;;2.10;1.20;;;16.60;38.90;;;;;;4992565;28;20445;-71
2023/05/11 01:58:15;;;;;;;2.00;1.10;;;16.70;39.90;;;;;;4992598;28;20444;-71
2023/05/11 02:00:42;;;;;;;2.10;1.23;;;16.70;42.20;;;;;;4990796;28;20464;-71
2023/05/11 02:03:09;;;;;;;2.10;1.20;;;16.70;43.00;;;;;;4991584;28;20479;-73
2023/05/11 02:05:38;;;;;;;2.10;1.40;;;16.70;42.80;;;;;;4991460;28;20433;-73
2023/05/11 02:08:05;;;;;;;2.00;1.20;;;16.70;42.00;;;;;;4991986;28;20471;-72
2023/05/11 02:10:33;;;;;;;1.90;1.10;;;16.70;42.40;;;;;;4991188;28;20467;-71
2023/05/11 02:13:01;;;;;;;1.90;1.13;;;16.70;41.70;;;;;;4990554;28;20472;-71
2023/05/11 02:15:27;;;;;;;2.00;1.17;;;16.80;41.80;;;;;;4991839;28;20436;-74
2023/05/11 02:17:54;;;;;;;2.03;1.10;;;17.00;39.30;;;;;;4991923;28;20417;-72
2023/05/11 02:20:20;;;;;;;1.90;1.30;;;16.80;40.10;;;;;;4991203;28;20495;-71
2023/05/11 02:22:46;;;;;;;2.00;1.33;;;16.70;40.30;;;;;;4982035;28;20448;-71
2023/05/11 02:25:14;;;;;;;2.00;1.20;;;16.80;41.00;;;;;;4973361;28;20479;-71
2023/05/11 02:27:40;;;;;;;2.00;1.30;;;17.10;39.00;;;;;;4991725;28;20940;-71
2023/05/11 02:30:07;;;;;;;2.00;1.20;;;16.60;41.30;;;;;;4991032;28;20435;-71
2023/05/11 02:32:37;;;;;;;2.00;1.20;;;16.40;41.00;;;;;;4990342;28;20598;-71
2023/05/11 02:35:11;;;;;;;2.23;1.43;;;16.40;41.80;;;;;;4992004;28;20794;-71
2023/05/11 02:37:43;;;;;;;2.10;1.30;;;16.60;39.30;;;;;;4990972;28;20535;-73
2023/05/11 02:40:19;;;;;;;1.90;1.10;;;16.70;39.80;;;;;;4988769;28;20475;-71
2023/05/11 02:42:49;;;;;;;1.90;1.20;;;16.40;39.10;;;;;;4972860;28;20753;-71
2023/05/11 02:45:16;;;;;;;2.00;1.17;;;16.50;41.60;;;;;;4991687;28;20420;-71
2023/05/11 02:47:46;;;;;;;2.13;1.20;;;16.50;40.70;;;;;;4991288;28;20468;-71
2023/05/11 02:50:13;;;;;;;2.13;1.20;;;16.70;40.40;;;;;;4991829;28;20429;-72
2023/05/11 02:52:47;;;;;;;32.77;1.73;;;16.70;39.20;;;;;;4989996;28;20472;-71
2023/05/11 02:55:15;;;;;;;2.30;1.20;;;16.70;40.80;;;;;;4991238;28;20439;-71
2023/05/11 02:57:42;;;;;;;2.20;1.10;;;16.70;40.40;;;;;;4991417;28;20467;-71
2023/05/11 03:00:09;;;;;;;2.20;1.10;;;16.60;41.10;;;;;;4987013;28;20441;-71
2023/05/11 03:02:34;;;;;;;2.10;1.20;;;16.60;42.80;;;;;;4989795;28;20496;-72
2023/05/11 03:05:00;;;;;;;2.33;1.20;;;16.60;43.70;;;;;;4991595;28;20986;-72
2023/05/11 03:07:26;;;;;;;2.40;1.30;;;16.70;44.10;;;;;;4990144;28;20186;-74
2023/05/11 03:09:51;;;;;;;2.40;1.10;;;16.70;40.90;;;;;;4989227;28;20204;-71
2023/05/11 03:12:17;;;;;;;2.40;1.10;;;16.60;41.50;;;;;;4991304;28;20292;-72
2023/05/11 03:14:43;;;;;;;2.40;1.20;;;16.60;43.80;;;;;;4990010;28;20217;-71
2023/05/11 03:17:12;;;;;;;2.30;1.20;;;16.60;44.10;;;;;;4990935;28;20558;-71
2023/05/11 03:19:40;;;;;;;2.40;1.20;;;16.70;43.60;;;;;;4990905;28;20439;-72
2023/05/11 03:22:06;;;;;;;2.40;1.20;;;16.70;43.80;;;;;;4991507;28;20469;-71
2023/05/11 03:24:33;;;;;;;2.60;1.30;;;16.50;42.40;;;;;;4990681;28;20864;-73
2023/05/11 03:27:00;;;;;;;2.40;1.10;;;16.50;44.30;;;;;;4987789;28;20472;-71
2023/05/11 03:29:26;;;;;;;2.40;1.10;;;16.50;43.70;;;;;;4988198;28;20446;-72
2023/05/11 03:31:54;;;;;;;2.50;1.20;;;16.50;42.50;;;;;;4994706;28;20909;-71
2023/05/11 03:34:20;;;;;;;2.70;1.37;;;16.40;44.30;;;;;;4994342;28;20453;-71
2023/05/11 03:36:49;;;;;;;2.63;1.17;;;16.40;44.80;;;;;;4994243;28;20520;-71
2023/05/11 03:39:16;;;;;;;2.60;1.10;;;16.50;44.30;;;;;;4994973;28;20661;-72
2023/05/11 03:41:44;;;;;;;2.20;1.30;;;16.60;44.60;;;;;;4990467;28;20471;-71
2023/05/11 03:44:12;;;;;;;2.20;1.20;;;16.60;44.40;;;;;;4993895;28;20415;-71
2023/05/11 03:46:40;;;;;;;2.20;1.10;;;16.60;44.50;;;;;;4993255;28;20442;-71
2023/05/11 03:49:06;;;;;;;9.10;1.90;;;16.50;44.60;;;;;;4994889;28;20428;-71
2023/05/11 03:51:34;;;;;;;2.30;1.20;;;16.40;45.80;;;;;;4993989;28;20445;-71
2023/05/11 03:53:59;;;;;;;2.30;1.20;;;16.40;45.70;;;;;;4993032;28;20446;-72
2023/05/11 03:56:25;;;;;;;2.30;1.10;;;16.60;44.70;;;;;;4994722;28;20416;-74
2023/05/11 03:58:52;;;;;;;2.50;1.30;;;16.50;43.20;;;;;;4993613;28;20230;-73
2023/05/11 04:01:17;;;;;;;2.27;1.10;;;16.20;43.00;;;;;;4994331;28;20985;-72
2023/05/11 04:03:50;;;;;;;2.60;1.40;;;16.20;44.10;;;;;;4993362;28;20436;-71
2023/05/11 04:06:17;;;;;;;2.40;1.17;;;16.10;44.70;;;;;;4993649;28;20212;-73
2023/05/11 04:08:43;;;;;;;2.30;1.13;;;16.00;43.50;;;;;;4993422;28;20452;-71
2023/05/11 04:11:09;;;;;;;2.50;1.10;;;16.00;44.30;;;;;;4994406;28;20438;-71
2023/05/11 04:13:34;;;;;;;5.40;1.63;;;15.90;44.60;;;;;;4992974;28;20208;-71
2023/05/11 04:16:00;;;;;;;2.40;1.20;;;16.20;46.80;;;;;;4993543;28;20268;-72
2023/05/11 04:18:25;;;;;;;2.60;1.30;;;16.30;45.80;;;;;;4993581;28;20691;-71
2023/05/11 04:20:51;;;;;;;4.00;2.10;;;16.40;46.00;;;;;;4993216;28;20283;-71
2023/05/11 04:23:16;;;;;;;2.50;1.10;;;16.40;46.50;;;;;;4993135;28;20293;-73
2023/05/11 04:25:42;;;;;;;2.50;1.30;;;16.40;46.50;;;;;;4993637;28;20186;-72
2023/05/11 04:28:08;;;;;;;2.60;1.30;;;16.30;44.40;;;;;;4994140;28;20603;-71
2023/05/11 04:30:33;;;;;;;1.90;1.20;;;16.40;45.00;;;;;;4975613;28;20214;-71
2023/05/11 04:32:59;;;;;;;2.10;1.20;;;16.50;46.10;;;;;;4992755;28;20204;-72
2023/05/11 04:35:24;;;;;;;2.20;1.20;;;16.40;45.30;;;;;;4992831;28;20235;-72
2023/05/11 04:37:50;;;;;;;2.17;1.10;;;16.40;45.10;;;;;;4994189;28;20640;-72
2023/05/11 04:40:16;;;;;;;2.40;1.20;;;16.50;46.10;;;;;;4991859;28;20569;-72
2023/05/11 04:42:41;;;;;;;2.40;1.17;;;16.40;45.30;;;;;;4992219;28;20255;-71
2023/05/11 04:45:07;;;;;;;2.40;1.10;;;16.50;45.40;;;;;;4995833;28;20194;-72
2023/05/11 04:47:34;;;;;;;2.30;1.10;;;16.40;45.20;;;;;;4994388;28;20194;-71
2023/05/11 04:49:59;;;;;;;2.40;1.20;;;16.50;44.70;;;;;;4992859;28;20451;-71
2023/05/11 04:52:25;;;;;;;1.90;1.20;;;16.50;44.90;;;;;;4984591;28;20477;-72
2023/05/11 04:54:51;;;;;;;1.80;1.13;;;16.40;44.10;;;;;;4992031;28;20774;-73
2023/05/11 04:57:17;;;;;;;2.00;1.20;;;16.40;44.50;;;;;;4992676;28;20518;-72
2023/05/11 04:59:43;;;;;;;2.20;1.20;;;16.40;45.20;;;;;;4991853;28;20516;-71
2023/05/11 05:02:08;;;;;;;2.00;1.17;;;16.50;45.80;;;;;;4992058;28;20292;-71
2023/05/11 05:04:34;;;;;;;1.90;1.23;;;16.50;46.20;;;;;;4993025;28;20189;-72
2023/05/11 05:07:00;;;;;;;2.10;1.20;;;16.60;46.10;;;;;;4993259;28;20199;-73
2023/05/11 05:09:25;;;;;;;1.80;1.13;;;16.60;45.50;;;;;;4993822;28;20177;-71
2023/05/11 05:11:51;;;;;;;2.00;1.20;;;16.70;44.60;;;;;;4991759;28;20213;-74
2023/05/11 05:14:16;;;;;;;2.10;1.30;;;16.60;44.20;;;;;;4992495;28;20189;-71
2023/05/11 05:16:42;;;;;;;2.00;1.20;;;16.70;45.30;;;;;;4993679;28;20260;-71
2023/05/11 05:19:08;;;;;;;2.00;1.20;;;16.60;43.30;;;;;;4993832;28;20170;-72
2023/05/11 05:21:34;;;;;;;2.13;1.30;;;16.60;43.10;;;;;;4993568;28;20236;-71
2023/05/11 05:24:02;;;;;;;2.10;1.20;;;16.60;44.20;;;;;;4991199;28;20931;-71
2023/05/11 05:26:28;;;;;;;2.30;1.33;;;16.70;45.30;;;;;;4992779;28;20191;-72
2023/05/11 05:28:53;;;;;;;1.90;1.10;;;16.80;45.90;;;;;;4993437;28;20408;-71
2023/05/11 05:31:19;;;;;;;2.20;1.30;;;16.80;45.50;;;;;;4993423;28;20194;-72
2023/05/11 05:33:44;;;;;;;2.40;1.30;;;16.70;45.50;;;;;;4991307;28;20205;-71
2023/05/11 05:36:10;;;;;;;2.30;1.20;;;16.80;45.40;;;;;;4992938;28;20186;-72
2023/05/11 05:38:35;;;;;;;2.40;1.30;;;16.90;45.40;;;;;;4992549;28;20268;-73
2023/05/11 05:41:01;;;;;;;2.70;1.30;;;17.00;45.30;;;;;;5022713;22;20978;-73
2023/05/11 05:43:27;;;;;;;3.40;1.60;;;17.10;42.10;;;;;;5028292;28;20189;-72
2023/05/11 05:45:52;;;;;;;2.63;1.20;;;17.10;44.00;;;;;;5029860;28;20563;-73
2023/05/11 05:48:18;;;;;;;2.77;1.30;;;17.20;43.00;;;;;;5032125;28;20183;-73
2023/05/11 05:50:43;;;;;;;2.70;1.20;;;17.30;39.70;;;;;;5031485;28;20242;-73
2023/05/11 05:53:09;;;;;;;2.70;1.20;;;17.10;42.00;;;;;;5031182;28;20205;-73
2023/05/11 05:55:35;;;;;;;3.57;1.77;;;17.10;44.00;;;;;;5011946;28;20180;-73
2023/05/11 05:58:00;;;;;;;2.60;1.20;;;17.10;44.80;;;;;;5031640;28;20211;-73
2023/05/11 06:00:26;;;;;;;2.80;1.33;;;17.20;44.20;;;;;;5032187;28;20657;-73
2023/05/11 06:02:52;;;;;;;2.60;1.30;;;17.20;41.30;;;;;;5030455;28;20370;-73
2023/05/11 06:05:17;;;;;;;2.70;1.30;;;17.20;42.80;;;;;;5030045;28;20226;-73
2023/05/11 06:07:43;;;;;;;2.80;1.37;;;17.20;44.50;;;;;;5031172;28;20655;-73
2023/05/11 06:10:08;;;;;;;2.60;1.20;;;17.30;44.40;;;;;;5032080;28;20176;-72
2023/05/11 06:12:34;;;;;;;2.90;1.40;;;17.30;44.70;;;;;;5030301;28;20710;-74
2023/05/11 06:15:00;;;;;;;2.70;1.23;;;17.40;43.60;;;;;;5031411;28;20177;-71
2023/05/11 06:17:27;;;;;;;2.90;1.40;;;17.30;42.70;;;;;;5028170;28;20181;-72
2023/05/11 06:19:53;;;;;;;2.80;1.10;;;17.30;43.00;;;;;;5031796;28;20687;-71
2023/05/11 06:22:18;;;;;;;2.83;1.27;;;17.30;43.90;;;;;;5031876;28;20428;-74
2023/05/11 06:24:44;;;;;;;2.80;1.20;;;17.30;42.90;;;;;;5031165;28;20491;-74
2023/05/11 06:27:09;;;;;;;2.90;1.30;;;17.00;40.30;;;;;;5029209;28;20606;-73
2023/05/11 06:29:35;;;;;;;2.90;1.30;;;17.20;39.80;;;;;;5030988;28;20266;-73
2023/05/11 06:32:00;;;;;;;3.50;1.63;;;16.90;41.70;;;;;;5031603;28;20564;-73
2023/05/11 06:34:26;;;;;;;2.80;1.23;;;16.90;44.50;;;;;;5028815;28;20189;-74
2023/05/11 06:36:52;;;;;;;2.80;1.30;;;17.20;42.10;;;;;;5031039;28;20176;-73
2023/05/11 06:39:17;;;;;;;2.70;1.20;;;16.80;41.30;;;;;;5031609;28;20184;-72
2023/05/11 06:41:43;;;;;;;2.70;1.20;;;16.00;44.50;;;;;;5030644;28;20212;-74
2023/05/11 06:44:09;;;;;;;2.80;1.20;;;15.70;44.20;;;;;;5027866;28;20177;-74
2023/05/11 06:46:34;;;;;;;2.80;1.30;;;15.80;46.00;;;;;;5013866;28;20593;-77
2023/05/11 06:49:00;;;;;;;2.80;1.37;;;16.30;46.60;;;;;;5012635;28;20184;-77
2023/05/11 06:51:26;;;;;;;2.90;1.37;;;16.90;45.00;;;;;;5032781;28;20278;-77
2023/05/11 06:53:51;;;;;;;2.90;1.30;;;16.80;42.50;;;;;;5030541;28;20490;-77
2023/05/11 06:56:17;;;;;;;2.90;1.30;;;16.50;44.20;;;;;;5011768;28;20215;-77
2023/05/11 06:58:43;;;;;;;3.10;1.40;;;16.10;43.90;;;;;;5030941;28;20629;-77
2023/05/11 07:01:10;;;;;;;2.77;1.20;;;15.70;47.10;;;;;;5025336;28;20205;-77
2023/05/11 07:03:36;;;;;;;3.20;1.60;;;15.40;45.60;;;;;;5019330;28;20661;-77
2023/05/11 07:06:02;;;;;;;2.80;1.23;;;15.40;50.60;;;;;;5017105;28;20428;-77
2023/05/11 07:08:27;;;;;;;2.80;1.30;;;15.90;49.40;;;;;;5035583;28;20184;-77
2023/05/11 07:10:53;;;;;;;2.90;1.40;;;16.20;46.60;;;;;;5034731;28;20439;-77
2023/05/11 07:13:19;;;;;;;2.90;1.40;;;16.70;46.80;;;;;;5034411;28;20206;-77
2023/05/11 07:15:44;;;;;;;3.20;1.60;;;17.10;42.30;;;;;;5033793;28;20175;-69
2023/05/11 07:18:10;;;;;;;3.00;1.40;;;17.30;43.30;;;;;;5025643;28;20559;-71
2023/05/11 07:20:36;;;;;;;2.90;1.30;;;17.10;43.70;;;;;;5032971;28;20239;-71
2023/05/11 07:23:02;;;;;;;3.00;1.40;;;17.20;41.80;;;;;;5034004;28;20180;-71
2023/05/11 07:25:28;;;;;;;2.87;1.23;;;17.10;42.50;;;;;;5031095;28;20184;-71
2023/05/11 07:27:54;;;;;;;3.60;1.80;;;16.90;43.20;;;;;;5019771;28;20435;-71
2023/05/11 07:30:20;;;;;;;3.07;1.40;;;16.30;43.80;;;;;;5034165;28;20434;-71
2023/05/11 07:32:46;;;;;;;3.20;1.60;;;15.70;45.00;;;;;;5033611;28;20516;-71
2023/05/11 07:35:11;;;;;;;3.10;1.50;;;15.90;47.40;;;;;;5033790;28;20201;-71
2023/05/11 07:37:37;;;;;;;3.00;1.40;;;16.70;42.90;;;;;;5028783;28;20653;-71
2023/05/11 07:40:03;;;;;;;3.00;1.30;;;17.20;43.40;;;;;;5031821;28;20181;-72
2023/05/11 07:42:29;;;;;;;2.93;1.27;;;16.90;42.30;;;;;;5033990;28;20214;-71
2023/05/11 07:44:54;;;;;;;1.77;1.20;;;16.70;44.00;;;;;;5032328;28;20517;-72
2023/05/11 07:47:20;;;;;;;2.70;1.80;;;16.60;43.80;;;;;;5034153;28;20193;-71
2023/05/11 07:49:49;;;;;;;1.80;1.20;;;16.80;43.40;;;;;;5034569;28;20263;-70
2023/05/11 07:52:15;;;;;;;2.67;1.63;;;16.80;42.80;;;;;;5034463;28;20204;-70
2023/05/11 07:54:40;;;;;;;2.60;1.50;;;16.00;45.50;;;;;;5030018;28;20510;-70
2023/05/11 07:57:06;;;;;;;2.70;1.43;;;15.80;47.90;;;;;;5034381;28;20281;-70
2023/05/11 07:59:32;;;;;;;2.37;1.30;;;16.20;47.10;;;;;;5034147;28;20172;-71
2023/05/11 08:01:58;;;;;;;2.20;1.33;;;16.40;45.20;;;;;;5033925;28;20429;-70
2023/05/11 08:04:26;;;;;;;2.47;1.40;;;16.70;46.20;;;;;;5030996;28;20272;-69
2023/05/11 08:06:51;;;;;;;2.10;1.40;;;16.80;44.20;;;;;;5032231;28;20467;-70
2023/05/11 08:09:17;;;;;;;2.00;1.17;;;15.80;45.80;;;;;;5033712;28;20910;-70
2023/05/11 08:11:42;;;;;;;2.30;1.30;;;15.70;48.00;;;;;;5034087;28;20280;-70
2023/05/11 08:14:08;;;;;;;2.20;1.20;;;15.90;46.80;;;;;;5032921;28;20165;-70
2023/05/11 08:16:35;;;;;;;1.90;1.30;;;15.60;48.40;;;;;;5031453;28;20181;-70
2023/05/11 08:19:01;;;;;;;2.60;1.40;;;16.30;47.80;;;;;;5033863;28;20169;-72
2023/05/11 08:21:26;;;;;;;2.20;1.20;;;17.00;44.20;;;;;;5029324;28;20850;-70
2023/05/11 08:23:52;;;;;;;2.30;1.20;;;17.20;42.50;;;;;;5032756;28;20175;-70
2023/05/11 08:26:18;;;;;;;2.10;1.30;;;16.40;46.90;;;;;;5032760;28;20200;-70
2023/05/11 08:28:44;;;;;;;2.10;1.30;;;16.70;47.00;;;;;;5035558;28;20263;-70
2023/05/11 08:31:10;;;;;;;5.70;2.30;;;17.00;44.60;;;;;;5032206;28;20518;-72
2023/05/11 08:33:36;;;;;;;2.20;1.30;;;17.10;42.60;;;;;;5012882;28;20198;-69
2023/05/11 08:36:02;;;;;;;2.20;1.20;;;16.70;45.10;;;;;;5013809;28;20450;-70
2023/05/11 08:38:28;;;;;;;2.33;1.40;;;16.60;44.00;;;;;;5029322;28;20247;-70
2023/05/11 08:40:53;;;;;;;2.37;1.30;;;15.50;48.00;;;;;;5031430;28;20879;-70
2023/05/11 08:43:21;;;;;;;2.33;1.33;;;16.00;49.20;;;;;;5032834;28;20196;-70
2023/05/11 08:45:52;;;;;;;2.30;1.20;;;17.00;45.90;;;;;;5032604;28;20213;-70
2023/05/11 08:48:19;;;;;;;3.17;1.40;;;17.60;42.50;;;;;;5027766;28;20446;-70
2023/05/11 08:50:46;;;;;;;2.50;1.20;;;15.50;40.40;;;;;;5031573;28;20455;-71
2023/05/11 08:53:12;;;;;;;2.50;1.40;;;17.20;43.70;;;;;;5029746;28;20549;-71
2023/05/11 08:55:40;;;;;;;4.50;2.83;;;17.50;43.90;;;;;;5026818;28;20844;-71
2023/05/11 08:58:06;;;;;;;2.90;1.70;;;17.90;40.50;;;;;;5026400;28;20501;-70
2023/05/11 09:00:32;;;;;;;2.50;1.30;;;17.70;40.80;;;;;;5030479;28;20918;-70
2023/05/11 09:02:59;;;;;;;2.70;1.47;;;17.80;40.40;;;;;;5026793;28;20181;-70
2023/05/11 09:05:26;;;;;;;2.60;1.20;;;18.00;41.00;;;;;;5031150;28;20452;-71
2023/05/11 09:07:58;;;;;;;2.60;1.33;;;18.20;39.40;;;;;;5031678;28;20431;-71
2023/05/11 09:10:23;;;;;;;2.70;1.30;;;18.20;40.00;;;;;;5029126;28;20447;-70
2023/05/11 09:12:49;;;;;;;2.70;1.30;;;18.20;39.30;;;;;;5032548;28;20455;-70
2023/05/11 09:15:15;;;;;;;2.00;1.20;;;18.40;40.60;;;;;;5032702;28;20632;-71
2023/05/11 09:17:40;;;;;;;2.80;1.20;;;18.50;40.70;;;;;;5033014;28;20223;-71
2023/05/11 09:20:08;;;;;;;2.70;1.40;;;18.30;38.80;;;;;;5031016;28;20181;-71
2023/05/11 09:22:40;;;;;;;2.10;1.40;;;18.50;40.10;;;;;;5031368;28;20706;-69
2023/05/11 09:25:09;;;;;;;1.90;1.30;;;18.70;40.40;;;;;;5032640;28;20894;-70
2023/05/11 09:27:40;;;;;;;2.00;1.30;;;18.80;38.30;;;;;;5032108;28;20415;-71
2023/05/11 09:30:17;;;;;;;2.10;1.40;;;18.80;40.20;;;;;;5032785;28;20403;-71
2023/05/11 09:32:57;;;;;;;2.30;1.50;;;18.40;36.50;;;;;;5027702;28;20473;-70
2023/05/11 09:35:30;;;;;;;2.60;1.60;;;17.80;37.40;;;;;;5031908;28;20401;-71
2023/05/11 09:38:10;;;;;;;2.17;1.30;;;17.80;38.10;;;;;;5032361;28;20757;-70
2023/05/11 09:40:45;;;;;;;2.00;1.30;;;17.70;37.90;;;;;;5032382;28;20426;-69
2023/05/11 09:43:25;;;;;;;2.20;1.30;;;17.80;38.80;;;;;;5012383;28;20812;-70
2023/05/11 09:45:56;;;;;;;1.70;1.20;;;17.90;39.70;;;;;;5025240;28;20441;-71
2023/05/11 09:48:30;;;;;;;8.43;1.30;;;18.10;38.70;;;;;;5032291;28;20474;-71
2023/05/11 09:51:05;;;;;;;42.63;1.60;;;17.70;39.50;;;;;;5032257;28;20447;-70
2023/05/11 09:53:41;;;;;;;39.77;1.60;;;17.80;40.80;;;;;;5012774;28;20469;-71
2023/05/11 09:56:07;;;;;;;35.97;1.70;;;18.40;40.20;;;;;;5031929;28;20905;-70
2023/05/11 09:58:47;;;;;;;31.33;1.70;;;18.80;38.00;;;;;;5031921;28;20420;-71
2023/05/11 10:01:14;;;;;;;42.87;1.73;;;18.80;38.40;;;;;;5032019;28;20428;-71
2023/05/11 10:03:46;;;;;;;15.37;1.50;;;18.40;37.80;;;;;;5027919;28;20467;-71
2023/05/11 10:06:12;;;;;;;15.03;1.37;;;17.90;38.20;;;;;;5031964;28;20446;-70
2023/05/11 10:08:38;;;;;;;22.60;1.90;;;17.30;38.80;;;;;;5032121;28;20448;-70
2023/05/11 10:11:07;;;;;;;15.03;1.50;;;17.40;41.90;;;;;;5031568;28;20613;-70
2023/05/11 10:13:34;;;;;;;14.57;1.50;;;17.10;43.20;;;;;;5030279;28;20301;-69
2023/05/11 10:16:03;;;;;;;14.43;1.40;;;17.90;41.90;;;;;;5030409;28;20435;-70
2023/05/11 10:18:30;;;;;;;14.43;1.40;;;18.40;40.20;;;;;;5031915;28;20450;-70
2023/05/11 10:20:57;;;;;;;14.23;1.30;;;18.50;39.50;;;;;;5028690;28;20445;-70
2023/05/11 10:23:27;;;;;;;14.50;1.40;;;18.70;40.50;;;;;;5030282;28;20531;-70
2023/05/11 10:25:53;;;;;;;14.20;1.40;;;18.80;38.60;;;;;;5031872;28;20409;-70
2023/05/11 10:28:20;;;;;;;14.37;1.43;;;18.90;40.20;;;;;;5029556;28;20789;-70
2023/05/11 10:30:46;;;;;;;13.87;1.40;;;18.80;40.60;;;;;;5031454;28;20450;-70
2023/05/11 10:33:12;;;;;;;14.30;1.60;;;18.70;40.40;;;;;;5029529;28;20509;-70
2023/05/11 10:35:38;;;;;;;17.27;1.90;;;18.60;42.50;;;;;;5031153;28;20479;-71
2023/05/11 10:38:05;;;;;;;13.93;1.60;;;18.50;42.50;;;;;;5031181;28;20938;-70
2023/05/11 10:40:37;;;;;;;14.03;1.40;;;18.60;42.00;;;;;;5031561;28;20461;-70
2023/05/11 10:43:27;;;;;;;16.87;1.60;;;18.50;41.50;;;;;;5029108;28;20435;-71
2023/05/11 10:46:17;;;;;;;15.33;1.40;;;18.70;40.50;;;;;;5024631;28;20786;-70
2023/05/11 10:49:00;;;;;;;14.97;1.40;;;18.70;41.00;;;;;;5031706;28;20402;-71
2023/05/11 10:51:44;;;;;;;12.73;1.40;;;18.80;41.70;;;;;;5031602;28;20431;-70
2023/05/11 10:54:19;;;;;;;12.60;1.40;;;18.90;40.60;;;;;;5028973;28;21001;-70
2023/05/11 10:57:10;;;;;;;11.93;1.50;;;18.90;40.30;;;;;;5030932;28;20416;-70
2023/05/11 11:00:09;;;;;;;8.80;1.80;;;18.70;36.00;;;;;;5031619;28;20469;-71
2023/05/11 11:02:35;;;;;;;8.27;1.40;;;18.80;39.60;;;;;;5030750;28;20482;-70
2023/05/11 11:05:04;;;;;;;8.30;1.20;;;18.80;38.30;;;;;;5029804;28;20438;-71
2023/05/11 11:07:30;;;;;;;8.63;1.30;;;18.70;39.80;;;;;;5030495;28;20445;-71
2023/05/11 11:09:58;;;;;;;11.30;1.47;;;18.60;39.50;;;;;;5031394;28;20411;-69
2023/05/11 11:12:28;;;;;;;10.70;1.60;;;18.70;38.70;;;;;;5031494;28;20493;-70
2023/05/11 11:15:00;;;;;;;9.90;1.43;;;18.60;40.30;;;;;;5030683;28;20413;-71
2023/05/11 11:17:30;;;;;;;12.50;1.40;;;18.30;37.10;;;;;;5029508;28;20428;-70
2023/05/11 11:20:19;;;;;;;11.37;1.40;;;18.10;38.90;;;;;;5029180;28;20435;-71
2023/05/11 11:22:45;;;;;;;11.23;1.50;;;17.60;37.60;;;;;;5022446;28;20444;-70
2023/05/11 11:25:12;;;;;;;11.73;1.40;;;17.00;42.70;;;;;;5031270;28;20411;-70
2023/05/11 11:27:44;;;;;;;11.80;1.40;;;17.70;43.50;;;;;;5031322;28;20410;-70
2023/05/11 11:30:19;;;;;;;10.87;1.50;;;17.60;44.10;;;;;;5028905;28;20486;-70
2023/05/11 11:32:50;;;;;;;12.07;1.50;;;17.40;37.40;;;;;;5029597;28;20929;-71
2023/05/11 11:35:40;;;;;;;17.37;1.43;;;17.70;37.60;;;;;;5031239;28;20777;-71
2023/05/11 11:38:14;;;;;;;13.27;1.57;;;17.80;36.30;;;;;;5031774;28;20423;-71
2023/05/11 11:40:52;;;;;;;9.97;1.50;;;17.90;38.50;;;;;;5029817;28;20459;-70
2023/05/11 11:43:23;;;;;;;10.30;1.90;;;17.30;37.50;;;;;;5047957;23;20490;-73
2023/05/11 11:46:00;;;;;;;9.17;1.30;;;17.90;41.70;;;;;;5031285;28;20413;-74
2023/05/11 11:48:34;;;;;;;7.50;1.30;;;18.10;39.80;;;;;;5033276;28;20480;-74
2023/05/11 11:51:09;;;;;;;7.57;1.50;;;18.90;40.70;;;;;;5031611;28;20857;-74
2023/05/11 11:53:36;;;;;;;7.77;1.43;;;19.40;37.60;;;;;;5012772;28;20454;-73
2023/05/11 11:56:02;;;;;;;8.10;1.50;;;19.60;37.10;;;;;;5014608;28;20619;-73
2023/05/11 11:58:40;;;;;;;8.70;1.80;;;19.00;37.80;;;;;;5015101;28;20426;-74
2023/05/11 12:01:12;;;;;;;8.60;1.60;;;18.30;38.30;;;;;;5005155;28;20464;-74
2023/05/11 12:03:40;;;;;;;8.30;1.60;;;18.40;39.90;;;;;;5008627;28;21066;-75
2023/05/11 12:06:07;;;;;;;8.03;1.30;;;18.70;40.10;;;;;;5013243;28;20470;-73
2023/05/11 12:08:35;;;;;;;8.53;1.53;;;19.20;37.40;;;;;;5013895;28;20543;-73
2023/05/11 12:11:02;;;;;;;8.40;1.40;;;19.70;37.00;;;;;;5014431;28;20418;-73
2023/05/11 12:13:28;;;;;;;8.53;1.40;;;19.90;36.00;;;;;;5011182;28;20474;-73
2023/05/11 12:16:13;;;;;;;8.63;1.30;;;20.00;33.20;;;;;;5014468;28;20907;-74
2023/05/11 12:18:41;;;;;;;9.50;1.63;;;20.00;36.70;;;;;;5010433;28;20431;-75
2023/05/11 12:21:17;;;;;;;9.57;1.53;;;20.20;34.90;;;;;;5008936;28;20515;-74
2023/05/11 12:24:00;;;;;;;9.20;1.50;;;19.60;35.00;;;;;;5004119;28;20428;-73
2023/05/11 12:26:28;;;;;;;11.23;1.40;;;19.40;35.30;;;;;;5009162;28;20440;-73
2023/05/11 12:29:11;;;;;;;10.60;1.47;;;20.00;35.30;;;;;;5009490;28;20442;-73
2023/05/11 12:31:38;;;;;;;10.70;1.60;;;20.30;33.40;;;;;;5012538;28;20475;-74
2023/05/11 12:34:04;;;;;;;10.30;1.40;;;20.30;36.10;;;;;;5003608;28;20471;-74
2023/05/11 12:36:30;;;;;;;11.73;1.50;;;20.30;34.40;;;;;;5012645;28;20420;-77
2023/05/11 12:38:56;;;;;;;11.83;1.60;;;20.40;33.90;;;;;;5009506;28;20173;-73
2023/05/11 12:41:22;;;;;;;13.30;2.10;;;20.50;33.10;;;;;;5012246;28;20490;-74
2023/05/11 12:43:50;;;;;;;12.27;2.30;;;20.40;31.90;;;;;;5008019;28;20239;-74
2023/05/11 12:46:17;;;;;;;12.60;1.70;;;20.20;33.20;;;;;;5009239;28;20448;-73
2023/05/11 12:48:47;;;;;;;11.60;1.50;;;20.30;34.10;;;;;;5011756;28;20438;-74
2023/05/11 12:51:13;;;;;;;11.30;1.50;;;20.30;33.80;;;;;;5008431;28;20443;-74